Great Smoky Mtns National Park, NC

3:51 PM EST on November 27, 2014 (GMT -0500)
Asheville Middle School | Change Station
CLOSE
Current Station
Personal Weather Station
Location: Asheville, NC
Elevation: 2139 ft
Nearby Weather Stations

Elev 2139 ft 35.59 °N, 82.56 °W | Updated 11 minutes ago

Overcast
Overcast
32.5 °F
Feels Like 27 °F
N
5.8
Wind Variable Wind from NW

Today
High -- | Low -- °F
--% Chance of Precip.
Yesterday
High -- | Low -- °F
Precip. -- in
7:17 AM 5:17 PM
Waxing Crescent, 32% visible
Pressure 30.20 in
Visibility 10.0 miles
Clouds Scattered Clouds 2800 ft
Overcast 4000 ft
Windchill 27 °F
Dew Point 25 °F
Humidity 73%
Rainfall 0.00 in
Snow Depth Not available.
UV 1 out of 12
Pollen .10 out of 12
Air Quality Not available.
Flu Activity Not available.
METAR KAVL 271954Z 33011KT 10SM SCT028 OVC040 02/M03 A3017 RMK AO2 UPB07E14SNE07B14E35 SLP225 P0000 T00221028

More Conditions Fewer Conditions

Pressure 30.20 in
Visibility 10.0 miles
Clouds Scattered Clouds 2800 ft
Overcast 4000 ft
Windchill 27 °F
Dew Point 25 °F
Humidity 73%
Rainfall 0.00 in
Snow Depth Not available.
UV 1 out of 12
Pollen .10 out of 12
Air Quality Not available.
Flu Activity Not available.
METAR KAVL 271954Z 33011KT 10SM SCT028 OVC040 02/M03 A3017 RMK AO2 UPB07E14SNE07B14E35 SLP225 P0000 T00221028

More Conditions Fewer Conditions

10-Day Weather Forecast

Almanac

Astronomy

Nov. 27, 2014 Rise Set
Actual Time
Civil Twilight
Nautical Twilight
Astronomical Twilight
Moon
Length of Visible Light
Length of Day
Tomorrow will be .
, % of the Moon is Illuminated

Today's Extremes

State Highs State Lows

Community

WunderPhotos

Upload Photos

1,774,100 photos uploaded!

WunderBlogs® & News

Nearby

Air Quality

  Air Quality AQ Index Pollutant
Not available.

Snow Depth

Station Depth Elevation

Earthquake Activity

City Distance Mag. Time & Date
Minimum magnitude displayed is 2.5.

Coastal Water Temperatures

Place Temperature

Nearby Weather Stations